WetterOnline ( https://www.wetteronline.de )

Wetter aktuell Bad Lauchstädt

Aktuelles Wetter: Leipzig/Halle (136m)

6-stündlich | Neueste Meldungen
Ortszeit Temperatur Wetter
So, 21.04. 20:00 18.2° C fast wolkenlos
So, 21.04. 14:00 19.5° C fast wolkenlos
So, 21.04. 8:00 8.0° C wolkenlos
So, 21.04. 2:00 9.4° C wolkenlos
Sa, 20.04. 20:00 17.6° C fast wolkenlos
Sa, 20.04. 14:00 20.1° C leicht bewölkt
Sa, 20.04. 8:00 7.3° C wolkenlos
Sa, 20.04. 2:00 10.9° C wolkenlos
Ortszeit Temperatur Wetter
Mo, 22.04. 0:00 12.2° C wolkenlos
So, 21.04. 23:50 13° C -
So, 21.04. 23:30 13.5° C wolkenlos
So, 21.04. 23:20 13.5° C wolkenlos
So, 21.04. 23:10 13.7° C wolkenlos
So, 21.04. 23:00 14.0° C wolkenlos
So, 21.04. 22:50 14.0° C fast wolkenlos
So, 21.04. 22:30 14.6° C wolkenlos
So, 21.04. 22:00 15.1° C wolkenlos
So, 21.04. 21:30 15.4° C wolkig
So, 21.04. 21:00 16.3° C fast wolkenlos
So, 21.04. 20:30 16.6° C fast wolkenlos
Ortszeit Relative Feuchte Sichtweite
So, 21.04. 20:00 35% 50 km
So, 21.04. 14:00 27% 45 km
So, 21.04. 8:00 65% 35 km
So, 21.04. 2:00 58% 40 km
Sa, 20.04. 20:00 40% 40 km
Sa, 20.04. 14:00 27% 40 km
Sa, 20.04. 8:00 69% 40 km
Sa, 20.04. 2:00 50% 50 km
Ortszeit Relative Feuchte Sichtweite
Mo, 22.04. 0:00 48% 40 km
So, 21.04. 23:50 47% >10 km
So, 21.04. 23:30 44% 40 km
So, 21.04. 23:20 44% -
So, 21.04. 23:10 44% -
So, 21.04. 23:00 43% 40 km
So, 21.04. 22:50 43% -
So, 21.04. 22:30 42% 45 km
So, 21.04. 22:00 42% 40 km
So, 21.04. 21:30 42% 50 km
So, 21.04. 21:00 40% 50 km
So, 21.04. 20:30 39% 60 km
Ortszeit Niederschlagsmenge Niederschlagsart
So, 21.04. 20:00 0.0 l/m2 in 12 Std. -
So, 21.04. 14:00 0.0 l/m2 in 6 Std. -
So, 21.04. 8:00 0.0 l/m2 in 12 Std. -
So, 21.04. 2:00 0.0 l/m2 in 6 Std. -
Sa, 20.04. 20:00 0.0 l/m2 in 12 Std. -
Sa, 20.04. 14:00 0.0 l/m2 in 6 Std. -
Sa, 20.04. 8:00 0.0 l/m2 in 12 Std. -
Sa, 20.04. 2:00 0.0 l/m2 in 6 Std. -
Ortszeit Niederschlagsmenge Niederschlagsart
Mo, 22.04. 0:00 0.0 l/m2 in 1 Std. -
So, 21.04. 23:50 keine Meldung -
So, 21.04. 23:30 0.0 l/m2 in 1 Std. -
So, 21.04. 23:20 keine Meldung -
So, 21.04. 23:10 keine Meldung -
So, 21.04. 23:00 0.0 l/m2 in 1 Std. -
So, 21.04. 22:50 keine Meldung -
So, 21.04. 22:30 0.0 l/m2 in 1 Std. -
So, 21.04. 22:00 0.0 l/m2 in 1 Std. -
So, 21.04. 21:30 0.0 l/m2 in 1 Std. -
So, 21.04. 21:00 0.0 l/m2 in 1 Std. -
So, 21.04. 20:30 0.0 l/m2 in 1 Std. -
Ortszeit Stärke Spitze Richtung
km/h Bft. km/h Grad Sektor
So, 21.04. 20:00 9 2 26 70° O
So, 21.04. 14:00 15 3 30 80° O
So, 21.04. 8:00 7 2 14 60° NO
So, 21.04. 2:00 9 2 19 50° NO
Sa, 20.04. 20:00 7 2 25 310° NW
Sa, 20.04. 14:00 9 2 17 50° NO
Sa, 20.04. 8:00 7 2 22 10° N
Sa, 20.04. 2:00 11 2 19 50° NO
Ortszeit Stärke Spitze Richtung
km/h Bft. km/h Grad Sektor
Mo, 22.04. 0:00 9 2 13 60° NO
So, 21.04. 23:50 13 3 - 60° NO
So, 21.04. 23:30 11 2 14 70° O
So, 21.04. 23:20 11 2 - 70° O
So, 21.04. 23:10 9 2 - 70° O
So, 21.04. 23:00 11 2 14 80° O
So, 21.04. 22:50 11 2 - 80° O
So, 21.04. 22:30 9 2 13 90° O
So, 21.04. 22:00 9 2 11 90° O
So, 21.04. 21:30 7 2 11 80° O
So, 21.04. 21:00 9 2 13 80° O
So, 21.04. 20:30 11 2 14 80° O
Ortszeit Untergrenze Bedeckung Gattung
total tief tief mittel hoch
So, 21.04. 20:00 9000 m 1/8 0/8 - - Ci
So, 21.04. 14:00 9000 m 1/8 0/8 - - Ci
So, 21.04. 8:00 - 0/8 0/8 - - -
So, 21.04. 2:00 - 0/8 0/8 - - -
Sa, 20.04. 20:00 9000 m 1/8 0/8 - - Ci
Sa, 20.04. 14:00 9000 m 3/8 0/8 - - Ci
Sa, 20.04. 8:00 - 0/8 0/8 - - -
Sa, 20.04. 2:00 - 0/8 0/8 - - -
Ortszeit Bedeckungsgrad in Achtel und Wolkenuntergrenze
Mo, 22.04. 0:00 keine Wolken
So, 21.04. 23:50 keine Wolken(unter 1500 m)
So, 21.04. 23:30 keine Wolken
So, 21.04. 23:20 keine Wolken
So, 21.04. 23:10 keine Wolken
So, 21.04. 23:00 2(10500m)
So, 21.04. 22:50 2(10500m)
So, 21.04. 22:30 keine Wolken
So, 21.04. 22:00 3(9000m)
So, 21.04. 21:30 7(9000m)
So, 21.04. 21:00 1(9000m)
So, 21.04. 20:30 1(9000m)
Ortszeit Luftdruck NN (hPa) Tendenz (hPa in 3 Std.)
So, 21.04. 20:00 1019 - 1,6
So, 21.04. 14:00 1022 - 1,8
So, 21.04. 8:00 1025 - 0,5
So, 21.04. 2:00 1027 - 0,9
Sa, 20.04. 20:00 1027 - 1,0
Sa, 20.04. 14:00 1030 - 1,3
Sa, 20.04. 8:00 1032 + 0,6
Sa, 20.04. 2:00 1031 + 0,3
Ortszeit Luftdruck NN (hPa) Tendenz (hPa in 3 Std.)
Mo, 22.04. 0:00 1019 - 0,3
So, 21.04. 23:50 1018 keine Meldung
So, 21.04. 23:30 1019 - 0,1
So, 21.04. 23:20 1019 keine Meldung
So, 21.04. 23:10 1019 keine Meldung
So, 21.04. 23:00 1019 0,0
So, 21.04. 22:50 1019 keine Meldung
So, 21.04. 22:30 1019 - 0,2
So, 21.04. 22:00 1019 - 0,3
So, 21.04. 21:30 1019 - 0,5
So, 21.04. 21:00 1019 - 0,9
So, 21.04. 20:30 1019 - 1,3
Ortszeit Schneehöhe (cm)
So, 21.04. 20:00 0
So, 21.04. 14:00 0
So, 21.04. 8:00 0
So, 21.04. 2:00 0
Sa, 20.04. 20:00 0
Sa, 20.04. 14:00 0
Sa, 20.04. 8:00 0
Sa, 20.04. 2:00 0
Ortszeit Schneehöhe (cm)
Mo, 22.04. 0:00 0
So, 21.04. 23:50 -
So, 21.04. 23:30 0
So, 21.04. 23:20 0
So, 21.04. 23:10 0
So, 21.04. 23:00 0
So, 21.04. 22:50 0
So, 21.04. 22:30 0
So, 21.04. 22:00 0
So, 21.04. 21:30 0
So, 21.04. 21:00 0
So, 21.04. 20:30 0
Link zu dieser Seite / Seite empfehlen

Das Wetter in ...